createdAt,value
2023-08-30T00:00:43.255Z,16.40
2023-08-30T00:04:44.280Z,16.30
2023-08-30T00:08:45.440Z,16.40
2023-08-30T00:12:46.581Z,16.40
2023-08-30T00:16:47.627Z,16.30
2023-08-30T00:20:48.796Z,16.30
2023-08-30T00:24:49.829Z,16.60
2023-08-30T00:28:50.849Z,16.00
2023-08-30T00:32:52.382Z,16.40
2023-08-30T00:36:53.457Z,16.60
2023-08-30T00:40:54.872Z,16.70
2023-08-30T00:44:56.011Z,16.60
2023-08-30T00:48:57.480Z,16.50
2023-08-30T00:52:58.627Z,16.70
2023-08-30T00:57:01.834Z,16.60
2023-08-30T01:01:04.500Z,16.70
2023-08-30T01:05:05.990Z,16.60
2023-08-30T01:09:07.608Z,16.80
2023-08-30T01:13:12.377Z,16.10
2023-08-30T01:17:16.545Z,16.60
2023-08-30T01:21:21.480Z,16.70
2023-08-30T01:25:52.546Z,16.60
2023-08-30T01:29:56.992Z,16.30
2023-08-30T01:33:58.351Z,16.30
2023-08-30T01:38:01.154Z,16.40
2023-08-30T01:42:03.597Z,16.60
2023-08-30T01:46:06.372Z,16.50
2023-08-30T01:50:08.286Z,16.50
2023-08-30T01:54:10.266Z,16.50
2023-08-30T01:58:12.508Z,16.70
2023-08-30T02:02:13.916Z,16.60
2023-08-30T02:06:24.653Z,16.80
2023-08-30T02:10:29.384Z,16.70
2023-08-30T02:14:32.991Z,17.10
2023-08-30T02:18:35.411Z,16.90
2023-08-30T02:22:36.548Z,16.80
2023-08-30T02:26:38.118Z,16.90
2023-08-30T02:30:39.404Z,16.90
2023-08-30T02:34:40.530Z,16.90
2023-08-30T02:38:41.527Z,16.80
2023-08-30T02:42:42.543Z,17.00
2023-08-30T02:46:43.523Z,17.10
2023-08-30T02:50:44.697Z,17.20
2023-08-30T02:54:45.753Z,16.80
2023-08-30T02:58:47.134Z,16.90
2023-08-30T03:02:49.117Z,16.80
2023-08-30T03:06:50.656Z,16.90
2023-08-30T03:10:51.679Z,17.00
2023-08-30T03:14:52.674Z,17.00
2023-08-30T03:18:53.927Z,17.30
2023-08-30T03:23:00.103Z,16.90
2023-08-30T03:27:01.113Z,17.10
2023-08-30T03:31:02.429Z,17.20
2023-08-30T03:35:04.318Z,16.60
2023-08-30T03:39:05.554Z,16.00
2023-08-30T03:43:06.708Z,16.60
2023-08-30T03:47:08.046Z,17.00
2023-08-30T03:51:09.001Z,17.10
2023-08-30T03:55:10.160Z,17.20
2023-08-30T03:59:13.213Z,17.20
2023-08-30T04:03:15.859Z,17.30
2023-08-30T04:07:16.906Z,17.30
2023-08-30T04:11:18.082Z,17.30
2023-08-30T04:15:19.241Z,17.00
2023-08-30T04:19:20.416Z,17.40
2023-08-30T04:23:21.562Z,17.20
2023-08-30T04:27:22.678Z,17.30
2023-08-30T04:31:23.924Z,17.30
2023-08-30T04:35:24.994Z,17.40
2023-08-30T04:39:26.175Z,17.40
2023-08-30T04:43:27.377Z,17.20
2023-08-30T04:47:30.081Z,17.10
2023-08-30T04:51:31.274Z,17.10
2023-08-30T04:55:32.341Z,17.10
2023-08-30T04:59:33.562Z,16.90
2023-08-30T05:03:35.020Z,16.90
2023-08-30T05:07:36.194Z,16.80
2023-08-30T05:11:37.476Z,17.20
2023-08-30T05:15:38.661Z,17.00
2023-08-30T05:19:39.718Z,16.30
2023-08-30T05:23:42.668Z,16.70
2023-08-30T05:27:43.964Z,17.20
2023-08-30T05:31:45.154Z,17.60
2023-08-30T05:35:46.774Z,17.70
2023-08-30T05:39:47.928Z,17.90
2023-08-30T05:43:48.994Z,17.80
2023-08-30T05:47:50.169Z,17.70
2023-08-30T05:51:51.368Z,17.60
2023-08-30T05:55:52.382Z,18.00
2023-08-30T05:59:53.578Z,17.30
2023-08-30T06:03:55.246Z,17.50
2023-08-30T06:07:56.458Z,17.90
2023-08-30T06:11:57.475Z,18.30
2023-08-30T06:15:58.690Z,18.50
2023-08-30T06:20:00.064Z,18.50
2023-08-30T06:24:01.246Z,18.90
2023-08-30T06:28:03.914Z,19.10
2023-08-30T06:32:06.208Z,18.30
2023-08-30T06:36:07.415Z,18.90
2023-08-30T06:40:09.446Z,19.20
2023-08-30T06:44:11.046Z,19.70
2023-08-30T06:48:12.757Z,20.30
2023-08-30T06:52:14.234Z,21.10
2023-08-30T06:56:15.327Z,20.60
2023-08-30T07:00:17.542Z,21.10
2023-08-30T07:04:19.048Z,21.80
2023-08-30T07:08:20.539Z,22.50
2023-08-30T07:12:21.712Z,22.70
2023-08-30T07:16:22.939Z,22.30
2023-08-30T07:20:24.067Z,21.80
2023-08-30T07:24:25.221Z,22.50
2023-08-30T07:28:26.466Z,22.50
2023-08-30T07:32:28.187Z,22.10
2023-08-30T07:36:45.029Z,22.30
2023-08-30T07:40:33.872Z,22.40
2023-08-30T07:44:35.066Z,23.10
2023-08-30T07:48:36.248Z,23.20
2023-08-30T07:52:51.719Z,23.60
2023-08-30T07:56:52.919Z,23.70
2023-08-30T08:00:54.019Z,24.00
2023-08-30T08:04:55.355Z,22.80
2023-08-30T08:08:56.598Z,22.30
2023-08-30T08:12:59.381Z,22.40
2023-08-30T08:17:00.805Z,22.80
2023-08-30T08:21:01.895Z,22.50
2023-08-30T08:25:03.345Z,22.30
2023-08-30T08:29:04.898Z,21.80
2023-08-30T08:33:06.097Z,22.20
2023-08-30T08:37:07.550Z,21.30
2023-08-30T08:41:12.395Z,21.70
2023-08-30T08:45:14.568Z,22.40
2023-08-30T08:49:16.901Z,21.70
2023-08-30T08:53:18.136Z,21.60
2023-08-30T08:57:19.864Z,22.60
2023-08-30T09:01:34.351Z,21.50
2023-08-30T09:05:24.740Z,21.70
2023-08-30T09:09:26.403Z,22.20
2023-08-30T09:13:27.806Z,22.40
2023-08-30T09:17:39.735Z,21.50
2023-08-30T09:21:44.681Z,21.10
2023-08-30T09:25:46.671Z,22.20
2023-08-30T09:29:48.039Z,22.40
2023-08-30T09:33:49.251Z,21.70
2023-08-30T09:37:50.888Z,22.00
2023-08-30T09:41:53.860Z,21.60
2023-08-30T09:45:55.038Z,20.90
2023-08-30T09:49:56.820Z,21.00
2023-08-30T09:54:05.970Z,21.10
2023-08-30T09:58:05.479Z,21.00
2023-08-30T10:02:08.606Z,22.10
2023-08-30T10:06:09.633Z,21.90
2023-08-30T10:10:11.348Z,22.70
2023-08-30T10:14:13.969Z,21.60
2023-08-30T10:18:18.254Z,22.20
2023-08-30T10:22:20.931Z,22.30
2023-08-30T10:26:25.009Z,22.90
2023-08-30T10:30:26.791Z,23.10
2023-08-30T10:34:31.632Z,22.80
2023-08-30T10:38:33.728Z,23.30
2023-08-30T10:42:35.382Z,23.00
2023-08-30T10:46:36.891Z,22.70
2023-08-30T10:50:38.242Z,23.10
2023-08-30T10:54:46.049Z,22.40
2023-08-30T10:58:47.098Z,22.80
2023-08-30T11:02:52.379Z,23.50
2023-08-30T11:07:13.596Z,23.80
2023-08-30T11:11:15.448Z,23.30
2023-08-30T11:15:16.847Z,24.20
2023-08-30T11:19:18.105Z,24.50
2023-08-30T11:23:19.418Z,23.40
2023-08-30T11:27:20.402Z,23.70
2023-08-30T11:31:28.777Z,24.10
2023-08-30T11:35:30.823Z,24.40
2023-08-30T11:39:32.136Z,25.50
2023-08-30T11:43:33.296Z,24.90
2023-08-30T11:47:34.812Z,24.10
2023-08-30T11:51:36.261Z,22.50
2023-08-30T11:55:38.432Z,22.50
2023-08-30T11:59:41.544Z,22.90
2023-08-30T12:03:43.121Z,23.00
2023-08-30T12:07:46.512Z,22.50
2023-08-30T12:11:51.054Z,22.40
2023-08-30T12:15:59.898Z,22.60
2023-08-30T12:20:01.059Z,22.10
2023-08-30T12:24:04.245Z,22.30
2023-08-30T12:28:05.596Z,22.20
2023-08-30T12:32:08.260Z,23.20
2023-08-30T12:36:09.432Z,23.50
2023-08-30T12:40:11.383Z,23.00
2023-08-30T12:44:12.457Z,23.20
2023-08-30T12:48:16.055Z,24.00
2023-08-30T12:52:18.141Z,23.20
2023-08-30T12:56:19.269Z,25.80
2023-08-30T13:00:20.481Z,25.30
2023-08-30T13:04:21.689Z,24.90
2023-08-30T13:08:22.801Z,24.20
2023-08-30T13:12:24.764Z,25.30
2023-08-30T13:16:26.269Z,24.70
2023-08-30T13:20:27.383Z,24.10
2023-08-30T13:24:28.677Z,23.60
2023-08-30T13:28:29.897Z,23.40
2023-08-30T13:32:31.270Z,22.00
2023-08-30T13:36:33.361Z,22.40
2023-08-30T13:40:34.751Z,22.00
2023-08-30T13:44:38.608Z,21.60
2023-08-30T13:48:39.837Z,20.10
2023-08-30T13:52:40.908Z,19.40
2023-08-30T13:56:42.507Z,19.70
2023-08-30T14:00:45.198Z,19.60
2023-08-30T14:04:46.427Z,19.90
2023-08-30T14:08:47.641Z,20.60
2023-08-30T14:12:48.818Z,21.00
2023-08-30T14:16:49.962Z,21.60
2023-08-30T14:20:51.014Z,22.50
2023-08-30T14:25:03.368Z,23.10
2023-08-30T14:28:55.128Z,22.90
2023-08-30T14:32:56.382Z,22.80
2023-08-30T14:36:57.461Z,23.50
2023-08-30T14:41:01.269Z,23.30
2023-08-30T14:45:03.196Z,22.60
2023-08-30T14:49:04.590Z,23.20
2023-08-30T14:53:06.898Z,24.20
2023-08-30T14:57:07.979Z,25.40
2023-08-30T15:01:10.506Z,24.70
2023-08-30T15:05:11.573Z,24.60
2023-08-30T15:09:14.627Z,23.90
2023-08-30T15:13:15.691Z,24.30
2023-08-30T15:17:17.320Z,24.40
2023-08-30T15:21:18.512Z,24.80
2023-08-30T15:25:20.234Z,25.70
2023-08-30T15:29:21.354Z,25.50
2023-08-30T15:33:24.447Z,25.10
2023-08-30T15:37:25.564Z,25.60
2023-08-30T15:41:26.598Z,24.50
2023-08-30T15:45:27.776Z,24.80
2023-08-30T15:49:28.864Z,24.20
2023-08-30T15:53:30.171Z,23.80
2023-08-30T15:57:31.276Z,23.50
2023-08-30T16:01:32.464Z,22.90
2023-08-30T16:05:34.714Z,22.10
2023-08-30T16:09:35.888Z,22.30
2023-08-30T16:13:36.939Z,22.10
2023-08-30T16:17:38.170Z,21.60
2023-08-30T16:21:39.465Z,21.50
2023-08-30T16:25:40.538Z,21.30
2023-08-30T16:29:41.728Z,21.30
2023-08-30T16:33:42.910Z,19.10
2023-08-30T16:37:43.970Z,18.20
2023-08-30T16:41:45.742Z,16.70
2023-08-30T16:45:47.169Z,16.90
2023-08-30T16:49:48.369Z,17.50
2023-08-30T16:53:49.578Z,17.20
2023-08-30T16:57:50.655Z,17.90
2023-08-30T17:01:51.826Z,17.50
2023-08-30T17:05:53.014Z,17.40
2023-08-30T17:09:54.097Z,17.60
2023-08-30T17:13:55.182Z,17.40
2023-08-30T17:17:56.268Z,18.20
2023-08-30T17:21:57.553Z,16.90
2023-08-30T17:25:59.748Z,17.50
2023-08-30T17:30:01.065Z,16.60
2023-08-30T17:34:02.120Z,16.50
2023-08-30T17:38:03.626Z,17.20
2023-08-30T17:42:06.402Z,18.10
2023-08-30T17:46:07.732Z,18.00
2023-08-30T17:50:09.625Z,18.30
2023-08-30T17:54:10.806Z,17.50
2023-08-30T17:58:12.039Z,18.00
2023-08-30T18:02:13.245Z,16.90
2023-08-30T18:06:15.347Z,15.70
2023-08-30T18:10:16.337Z,14.30
2023-08-30T18:14:17.375Z,15.00
2023-08-30T18:18:18.407Z,15.00
2023-08-30T18:22:19.531Z,15.10
2023-08-30T18:26:20.636Z,15.40
2023-08-30T18:30:22.142Z,14.90
2023-08-30T18:34:23.338Z,15.00
2023-08-30T18:38:24.479Z,15.90
2023-08-30T18:42:27.747Z,15.70
2023-08-30T18:46:28.869Z,15.60
2023-08-30T18:50:31.020Z,15.20
2023-08-30T18:54:32.062Z,15.60
2023-08-30T18:58:33.251Z,14.90
2023-08-30T19:02:34.354Z,15.30
2023-08-30T19:06:35.637Z,15.20
2023-08-30T19:10:36.722Z,15.20
2023-08-30T19:14:37.734Z,14.60
2023-08-30T19:18:39.367Z,15.00
2023-08-30T19:22:41.511Z,16.00
2023-08-30T19:26:42.570Z,16.50
2023-08-30T19:30:44.264Z,16.40
2023-08-30T19:34:47.741Z,16.60
2023-08-30T19:38:51.280Z,16.90
2023-08-30T19:42:53.778Z,16.80
2023-08-30T19:46:56.766Z,16.80
2023-08-30T19:50:59.169Z,16.40
2023-08-30T19:55:00.300Z,14.70
2023-08-30T19:59:01.654Z,15.80
2023-08-30T20:03:03.539Z,16.30
2023-08-30T20:07:05.204Z,16.30
2023-08-30T20:11:07.922Z,16.50
2023-08-30T20:15:09.627Z,16.40
2023-08-30T20:19:12.743Z,16.50
2023-08-30T20:23:14.210Z,16.20
2023-08-30T20:27:15.430Z,16.60
2023-08-30T20:31:16.991Z,16.50
2023-08-30T20:35:18.023Z,16.70
2023-08-30T20:39:19.015Z,16.70
2023-08-30T20:43:20.086Z,16.50
2023-08-30T20:47:21.120Z,16.40
2023-08-30T20:51:22.628Z,16.90
2023-08-30T20:55:34.120Z,17.10
2023-08-30T20:59:26.758Z,16.90
2023-08-30T21:03:28.131Z,16.80
2023-08-30T21:07:29.615Z,16.70
2023-08-30T21:11:30.731Z,17.30
2023-08-30T21:15:31.960Z,16.70
2023-08-30T21:19:33.148Z,16.90
2023-08-30T21:23:34.452Z,16.80
2023-08-30T21:27:35.602Z,16.90
2023-08-30T21:31:36.879Z,17.00
2023-08-30T21:35:39.259Z,17.20
2023-08-30T21:39:42.162Z,17.30
2023-08-30T21:43:43.228Z,17.50
2023-08-30T21:47:44.966Z,17.10
2023-08-30T21:51:46.217Z,16.40
2023-08-30T21:55:47.555Z,16.60
2023-08-30T21:59:48.843Z,15.70
2023-08-30T22:03:50.035Z,15.60
2023-08-30T22:07:51.453Z,15.70
2023-08-30T22:11:52.759Z,15.40
2023-08-30T22:15:54.029Z,15.40
2023-08-30T22:19:55.065Z,15.30
2023-08-30T22:23:59.000Z,15.40
2023-08-30T22:28:02.151Z,15.20
2023-08-30T22:32:03.583Z,15.40
2023-08-30T22:36:05.135Z,15.30
2023-08-30T22:40:08.705Z,15.30
2023-08-30T22:44:10.730Z,15.50
2023-08-30T22:48:11.988Z,15.20
2023-08-30T22:52:13.166Z,15.10
2023-08-30T22:56:14.284Z,15.60
2023-08-30T23:00:15.908Z,15.70
2023-08-30T23:04:17.227Z,14.90
2023-08-30T23:08:19.366Z,15.30
2023-08-30T23:12:21.795Z,14.90
2023-08-30T23:16:23.218Z,14.10
2023-08-30T23:20:24.742Z,15.00
2023-08-30T23:24:25.784Z,15.10
2023-08-30T23:28:26.954Z,14.80
2023-08-30T23:32:28.162Z,14.40
2023-08-30T23:36:29.832Z,14.60
2023-08-30T23:40:30.927Z,14.50
2023-08-30T23:44:33.772Z,14.20
2023-08-30T23:48:34.827Z,14.50
2023-08-30T23:52:36.062Z,13.90
2023-08-30T23:56:38.256Z,14.00
